Time;durP1;ratioP1;P1;durP2;ratioP2;P2;SDS_P1;SDS_P2;PMS_P1;PMS_P2;Temp;Humidity;BMP_temperature;BMP_pressure;BME280_temperature;BME280_humidity;BME280_pressure;Samples;Min_cycle;Max_cycle;Signal;HPM_P1;HPM_P2
2021/12/17 00:06:03;;;;;;;;;;;;;;;;;;;;;
2021/12/17 00:08:58;;;;;;;;;;;;;;;18.68;37.08;101600.92;96820;1414;61876;-83
2021/12/17 00:12:04;;;;;;;;;;;;;;;18.68;36.98;101600.59;96863;1413;72970;-83
2021/12/17 00:15:35;;;;;;;;;;;;;;;18.68;37.12;101600.77;96902;1417;75195;-83
2021/12/17 00:52:39;;;;;;;;;;;;;;;;;;;;;
2021/12/17 00:55:48;;;;;;;;;;;;;;;18.66;37.04;101559.33;100172;1371;72913;-82
2021/12/17 00:59:06;;;;;;;;;;;;;;;;;;;;;
2021/12/17 01:05:44;;;;;;;;;;;;;;;;;;;;;
2021/12/17 01:09:36;;;;;;;;;;;;;;;18.66;37.06;101549.52;99287;1375;75573;-82
2021/12/17 01:13:02;;;;;;;;;;;;;;;18.66;37.02;101546.33;99333;1388;60310;-82
2021/12/17 01:15:53;;;;;;;;;;;;;;;;;;;;;
2021/12/17 01:36:21;;;;;;;;;;;;;;;;;;;;;
2021/12/17 01:42:53;;;;;;;;;;;;;;;18.64;37.07;101511.82;97653;1408;60668;-82
2021/12/17 01:46:36;;;;;;;;;;;;;;;18.64;37.07;101499.16;98143;1395;72971;-82
2021/12/17 02:03:22;;;;;;;;;;;;;;;18.63;37.02;101474.25;98979;1393;73947;-82
2021/12/17 02:06:09;;;;;;;;;;;;;;;18.62;36.96;101464.83;99049;1390;60434;-83
2021/12/17 02:10:03;;;;;;;;;;;;;;;;;;;;;
2021/12/17 02:20:47;;;;;;;;;;;;;;;18.62;37.10;101463.25;98475;1396;60532;-81
2021/12/17 02:37:15;;;;;;;;;;;;;;;18.61;37.10;101464.92;96971;1416;60606;-82
2021/12/17 02:53:23;;;;;;;;;;;;;;;;;;;;;
2021/12/17 02:57:14;;;;;;;;;;;;;;;18.58;36.87;101453.09;97215;1410;72974;-82
2021/12/17 03:00:16;;;;;;;;;;;;;;;18.58;36.99;101453.61;96944;1407;60533;-82
2021/12/17 03:03:32;;;;;;;;;;;;;;;;;;;;;
2021/12/17 03:06:44;;;;;;;;;;;;;;;;;;;;;
2021/12/17 03:27:04;;;;;;;;;;;;;;;18.56;36.87;101451.61;99510;1385;60427;-83
2021/12/17 03:33:21;;;;;;;;;;;;;;;;;;;;;
2021/12/17 03:36:24;;;;;;;;;;;;;;;18.55;36.85;101445.05;99248;1385;72773;-82
2021/12/17 03:43:11;;;;;;;;;;;;;;;;;;;;;
2021/12/17 03:47:05;;;;;;;;;;;;;;;18.54;36.91;101440.29;99323;1385;73657;-82
2021/12/17 03:49:52;;;;;;;;;;;;;;;18.54;36.94;101432.98;99445;1383;74173;-83
2021/12/17 03:53:22;;;;;;;;;;;;;;;;;;;;;
2021/12/17 03:59:44;;;;;;;;;;;;;;;;;;;;;
2021/12/17 04:03:27;;;;;;;;;;;;;;;18.54;36.95;101431.38;99047;1390;72048;-83
2021/12/17 04:06:50;;;;;;;;;;;;;;;18.54;36.90;101429.80;99082;1387;60681;-83
2021/12/17 04:09:42;;;;;;;;;;;;;;;;;;;;;
2021/12/17 04:17:02;;;;;;;;;;;;;;;18.53;36.87;101437.84;98634;1394;72787;-83
2021/12/17 04:20:23;;;;;;;;;;;;;;;18.53;36.85;101437.48;98440;1396;60595;-82
2021/12/17 04:23:17;;;;;;;;;;;;;;;;;;;;;
2021/12/17 04:33:14;;;;;;;;;;;;;;;;;;;;;
2021/12/17 04:36:44;;;;;;;;;;;;;;;18.52;36.73;101430.95;98497;1394;60530;-82
2021/12/17 04:40:00;;;;;;;;;;;;;;;;;;;;;
2021/12/17 05:00:15;;;;;;;;;;;;;;;;;;;;;
2021/12/17 05:03:03;;;;;;;;;;;;;;;18.47;36.65;101434.41;96928;1414;60601;-82
2021/12/17 05:06:41;;;;;;;;;;;;;;;18.44;36.59;101427.60;97009;1411;72281;-82
2021/12/17 05:11:12;;;;;;;;;;;;;;;18.41;36.52;101427.35;97329;1405;72933;-83
2021/12/17 05:20:10;;;;;;;;;;;;;;;;;;;;;
2021/12/17 05:23:29;;;;;;;;;;;;;;;;;;;;;
2021/12/17 05:27:22;;;;;;;;;;;;;;;18.34;36.28;101415.79;98670;1392;60922;-82
2021/12/17 05:33:48;;;;;;;;;;;;;;;;;;;;;
2021/12/17 05:37:41;;;;;;;;;;;;;;;18.30;36.23;101433.27;99143;1383;74353;-82
2021/12/17 05:40:49;;;;;;;;;;;;;;;18.30;36.15;101430.08;98814;1389;60603;-81
2021/12/17 05:43:36;;;;;;;;;;;;;;;18.30;36.15;101431.31;98887;1390;60590;-81
2021/12/17 05:46:59;;;;;;;;;;;;;;;;;;;;;
2021/12/17 05:50:06;;;;;;;;;;;;;;;18.31;36.06;101427.38;98664;1387;75005;-80
2021/12/17 05:52:45;;;;;;;;;;;;;;;18.31;35.78;101428.58;98501;1386;60560;-82
2021/12/17 05:55:10;;;;;;;;;;;;;;;18.31;35.81;101430.90;98741;1386;60485;-80
2021/12/17 05:58:12;;;;;;;;;;;;;;;18.32;35.75;101429.27;98557;1389;72975;-80
2021/12/17 06:00:46;;;;;;;;;;;;;;;18.31;35.68;101424.48;99003;1380;73127;-80
2021/12/17 06:03:34;;;;;;;;;;;;;;;18.32;35.71;101423.73;99244;1380;60772;-81
2021/12/17 06:06:10;;;;;;;;;;;;;;;18.33;35.60;101423.67;99512;1375;61704;-82
2021/12/17 06:08:43;;;;;;;;;;;;;;;18.33;35.60;101427.03;99561;1372;60088;-81
2021/12/17 06:11:29;;;;;;;;;;;;;;;18.35;35.53;101425.35;99488;1377;74158;-79
2021/12/17 06:14:11;;;;;;;;;;;;;;;18.36;35.53;101422.80;99760;1377;60360;-80
2021/12/17 06:17:04;;;;;;;;;;;;;;;;;;;;;
2021/12/17 06:19:35;;;;;;;;;;;;;;;18.39;35.30;101426.92;100157;1370;73828;-80
2021/12/17 06:22:10;;;;;;;;;;;;;;;18.43;35.34;101419.79;100180;1367;74225;-78
2021/12/17 06:24:45;;;;;;;;;;;;;;;;;;;;;
2021/12/17 06:27:55;;;;;;;;;;;;;;;18.56;35.30;101418.80;99877;1374;60572;-80
2021/12/17 06:30:39;;;;;;;;;;;;;;;18.64;35.21;101424.11;100211;1368;72372;-79
2021/12/17 06:33:14;;;;;;;;;;;;;;;18.70;35.15;101421.10;100876;1366;75363;-79
2021/12/17 06:36:22;;;;;;;;;;;;;;;18.76;35.13;101421.50;100838;1363;60474;-80
2021/12/17 06:38:56;;;;;;;;;;;;;;;18.83;35.17;101423.81;100513;1364;59702;-80
2021/12/17 06:41:37;;;;;;;;;;;;;;;18.90;35.19;101434.02;100603;1369;74069;-80
2021/12/17 06:44:26;;;;;;;;;;;;;;;18.95;35.01;101441.07;100385;1369;74176;-80
2021/12/17 06:47:33;;;;;;;;;;;;;;;19.00;35.08;101439.37;100568;1366;60542;-80
2021/12/17 07:01:14;;;;;;;;;;;;;;;18.93;34.93;101433.70;100622;1366;60829;-80
2021/12/17 07:18:46;;;;;;;;;;;;;;;19.07;35.30;101424.73;100567;1365;72948;-81
2021/12/17 07:35:36;;;;;;;;;;;;;;;;;;;;;
2021/12/17 07:41:23;;;;;;;;;;;;;;;19.36;35.82;101428.91;100040;1372;73900;-79
2021/12/17 07:43:53;;;;;;;;;;;;;;;19.40;35.78;101430.53;100110;1368;60995;-80
2021/12/17 07:46:19;;;;;;;;;;;;;;;19.42;35.95;101429.13;100963;1372;62071;-80
2021/12/17 07:48:52;;;;;;;;;;;;;;;19.45;35.94;101420.23;100274;1364;59527;-80
2021/12/17 07:51:18;;;;;;;;;;;;;;;19.47;36.01;101420.13;100470;1365;74211;-79
2021/12/17 07:53:44;;;;;;;;;;;;;;;19.50;36.05;101422.46;100278;1364;60478;-82
2021/12/17 07:56:14;;;;;;;;;;;;;;;19.52;36.18;101421.26;100560;1365;60302;-80
2021/12/17 07:58:42;;;;;;;;;;;;;;;19.53;36.27;101427.13;101078;1365;72826;-80
2021/12/17 08:01:10;;;;;;;;;;;;;;;19.52;36.36;101429.30;100470;1365;73998;-80
2021/12/17 08:03:37;;;;;;;;;;;;;;;19.54;36.38;101431.52;100575;1365;62286;-81
2021/12/17 08:06:05;;;;;;;;;;;;;;;19.56;36.43;101432.83;100548;1364;60557;-80
2021/12/17 08:08:33;;;;;;;;;;;;;;;19.58;36.48;101430.60;100478;1364;72605;-80
2021/12/17 08:11:05;;;;;;;;;;;;;;;19.59;36.42;101429.47;100566;1365;74153;-81
2021/12/17 08:13:44;;;;;;;;;;;;;;;19.59;36.46;101426.92;100518;1364;60677;-80
2021/12/17 08:16:34;;;;;;;;;;;;;;;19.60;36.46;101425.11;101659;1362;60665;-80
2021/12/17 08:24:52;;;;;;;;;;;;;;;19.65;36.24;101402.91;100815;1362;60379;-80
2021/12/17 08:30:43;;;;;;;;;;;;;;;19.68;36.40;101413.80;100371;1365;72995;-81
2021/12/17 08:33:06;;;;;;;;;;;;;;;19.68;36.31;101404.88;101082;1360;73862;-81
2021/12/17 08:35:35;;;;;;;;;;;;;;;19.64;36.21;101398.29;100942;1359;60791;-79
2021/12/17 08:38:10;;;;;;;;;;;;;;;19.57;36.10;101395.64;101152;1359;60815;-79
2021/12/17 08:40:35;;;;;;;;;;;;;;;19.49;36.18;101385.58;101146;1358;71919;-80
2021/12/17 08:43:01;;;;;;;;;;;;;;;19.42;36.11;101376.83;101177;1357;60619;-81
2021/12/17 08:45:27;;;;;;;;;;;;;;;19.35;35.98;101373.45;101222;1357;61450;-80
2021/12/17 08:48:03;;;;;;;;;;;;;;;19.27;36.04;101366.23;101179;1359;60539;-81
2021/12/17 08:50:29;;;;;;;;;;;;;;;19.20;35.99;101366.82;101160;1358;72876;-80
2021/12/17 08:52:54;;;;;;;;;;;;;;;19.13;36.05;101361.46;101258;1356;59537;-81
2021/12/17 08:55:23;;;;;;;;;;;;;;;19.02;36.00;101355.98;100980;1360;61076;-80
2021/12/17 08:57:49;;;;;;;;;;;;;;;18.93;36.08;101361.97;100563;1357;60572;-80
2021/12/17 09:00:14;;;;;;;;;;;;;;;18.88;36.07;101360.27;101291;1355;59587;-81
2021/12/17 09:02:50;;;;;;;;;;;;;;;18.86;36.04;101362.33;101218;1355;60589;-81
2021/12/17 09:05:37;;;;;;;;;;;;;;;18.83;36.17;101351.99;101396;1354;61386;-82
2021/12/17 09:08:16;;;;;;;;;;;;;;;18.79;36.07;101350.02;101599;1349;61592;-80
2021/12/17 09:10:45;;;;;;;;;;;;;;;18.80;36.24;101347.67;101708;1349;60497;-83
2021/12/17 09:13:25;;;;;;;;;;;;;;;18.83;36.12;101345.73;101820;1348;72884;-82
2021/12/17 09:16:09;;;;;;;;;;;;;;;18.87;36.18;101344.61;101753;1344;60054;-83
2021/12/17 09:18:46;;;;;;;;;;;;;;;18.93;36.19;101339.34;101766;1349;62224;-82
2021/12/17 09:21:20;;;;;;;;;;;;;;;18.98;36.21;101335.52;101704;1348;74041;-80
2021/12/17 09:23:55;;;;;;;;;;;;;;;18.99;36.10;101322.77;101745;1350;75036;-80
2021/12/17 09:26:41;;;;;;;;;;;;;;;19.02;36.15;101320.32;101776;1350;59367;-80
2021/12/17 09:29:15;;;;;;;;;;;;;;;19.05;36.17;101327.47;101821;1349;60473;-79
2021/12/17 09:31:49;;;;;;;;;;;;;;;19.07;36.22;101324.48;101755;1347;72876;-80
2021/12/17 09:34:26;;;;;;;;;;;;;;;19.11;36.28;101317.14;101549;1352;74016;-79
2021/12/17 09:37:43;;;;;;;;;;;;;;;;;;;;;
2021/12/17 09:40:40;;;;;;;;;;;;;;;19.22;36.30;101308.51;101752;1350;61423;-80
2021/12/17 09:43:15;;;;;;;;;;;;;;;19.26;36.49;101310.27;101669;1349;73928;-80
2021/12/17 09:45:46;;;;;;;;;;;;;;;19.30;36.61;101297.38;101731;1347;74201;-81
2021/12/17 09:48:19;;;;;;;;;;;;;;;19.33;36.48;101297.21;101775;1349;61046;-81
2021/12/17 09:51:04;;;;;;;;;;;;;;;;;;;;;
2021/12/17 09:53:49;;;;;;;;;;;;;;;19.33;36.50;101294.90;101767;1349;73081;-81
2021/12/17 09:56:17;;;;;;;;;;;;;;;19.25;36.40;101289.62;101749;1349;73967;-81
2021/12/17 09:58:42;;;;;;;;;;;;;;;19.16;36.36;101285.29;101553;1350;60524;-81
2021/12/17 10:01:10;;;;;;;;;;;;;;;19.09;36.38;101284.59;101724;1347;58567;-80
2021/12/17 10:03:36;;;;;;;;;;;;;;;19.04;36.27;101283.61;101940;1346;60431;-81
2021/12/17 10:06:02;;;;;;;;;;;;;;;19.00;36.30;101285.27;101832;1347;60535;-82
2021/12/17 10:08:31;;;;;;;;;;;;;;;18.96;36.31;101286.02;101892;1348;59244;-81
2021/12/17 10:11:10;;;;;;;;;;;;;;;18.92;36.31;101282.31;101839;1350;60742;-80
2021/12/17 10:13:35;;;;;;;;;;;;;;;18.89;36.30;101280.15;102700;1348;72627;-80
2021/12/17 10:16:06;;;;;;;;;;;;;;;18.90;36.33;101280.27;102689;1350;58756;-80
2021/12/17 10:18:32;;;;;;;;;;;;;;;18.94;36.24;101274.36;102183;1353;60130;-80
2021/12/17 10:21:02;;;;;;;;;;;;;;;18.98;36.23;101269.85;101501;1349;60713;-80
2021/12/17 10:24:10;;;;;;;;;;;;;;;19.04;36.18;101264.36;101469;1349;72642;-79
2021/12/17 10:26:49;;;;;;;;;;;;;;;19.10;36.15;101265.09;101108;1353;73980;-80
2021/12/17 10:29:28;;;;;;;;;;;;;;;19.15;36.05;101260.00;101051;1355;60704;-79
2021/12/17 10:32:07;;;;;;;;;;;;;;;19.19;36.01;101252.83;101159;1356;60447;-80
2021/12/17 10:35:06;;;;;;;;;;;;;;;19.23;36.13;101243.30;101134;1353;73449;-80
2021/12/17 10:37:55;;;;;;;;;;;;;;;19.29;36.07;101239.05;101133;1357;73854;-80
2021/12/17 10:40:27;;;;;;;;;;;;;;;19.33;36.09;101232.08;101969;1356;60255;-81
2021/12/17 10:43:05;;;;;;;;;;;;;;;19.37;36.09;101229.71;101844;1357;61589;-80
2021/12/17 10:45:38;;;;;;;;;;;;;;;19.41;36.27;101226.27;101835;1360;74281;-81
2021/12/17 10:48:33;;;;;;;;;;;;;;;19.44;36.55;101227.30;101657;1359;74100;-80
2021/12/17 10:51:09;;;;;;;;;;;;;;;19.45;36.73;101220.15;101143;1358;60686;-80
2021/12/17 10:53:37;;;;;;;;;;;;;;;19.38;36.66;101214.44;101114;1357;60731;-80
2021/12/17 10:56:03;;;;;;;;;;;;;;;19.24;36.44;101214.73;101178;1357;59363;-81
2021/12/17 10:58:32;;;;;;;;;;;;;;;19.10;36.46;101210.88;100813;1360;60504;-80
2021/12/17 11:01:02;;;;;;;;;;;;;;;19.00;36.44;101213.05;101192;1356;60870;-80
2021/12/17 11:03:40;;;;;;;;;;;;;;;18.90;36.57;101208.77;101171;1356;61693;-81
2021/12/17 11:06:16;;;;;;;;;;;;;;;18.86;36.59;101195.77;101764;1360;72322;-82
2021/12/17 11:08:42;;;;;;;;;;;;;;;18.89;36.65;101196.50;101910;1359;58925;-83
2021/12/17 11:11:12;;;;;;;;;;;;;;;18.94;36.59;101196.77;101694;1359;58769;-82
2021/12/17 11:13:55;;;;;;;;;;;;;;;18.97;36.61;101193.59;101797;1357;60509;-83
2021/12/17 11:16:26;;;;;;;;;;;;;;;18.96;36.56;101189.55;102266;1353;71730;-82
2021/12/17 11:18:53;;;;;;;;;;;;;;;18.94;36.51;101189.08;102240;1354;73954;-83
2021/12/17 11:21:24;;;;;;;;;;;;;;;18.94;36.47;101181.80;102238;1356;61199;-82
2021/12/17 11:23:57;;;;;;;;;;;;;;;18.92;36.42;101181.52;102312;1349;60358;-83
2021/12/17 11:26:23;;;;;;;;;;;;;;;18.89;36.40;101174.39;102206;1350;72794;-82
2021/12/17 11:28:53;;;;;;;;;;;;;;;18.86;36.42;101170.95;101594;1356;59487;-82
2021/12/17 11:31:30;;;;;;;;;;;;;;;18.85;36.30;101167.65;101359;1356;60813;-82
2021/12/17 11:33:55;;;;;;;;;;;;;;;18.83;36.29;101173.63;101470;1353;61969;-81
2021/12/17 11:36:41;;;;;;;;;;;;;;;18.82;36.22;101176.52;101370;1356;73350;-81
2021/12/17 11:39:16;;;;;;;;;;;;;;;18.84;36.20;101178.95;101386;1353;75132;-82
2021/12/17 11:42:29;;;;;;;;;;;;;;;18.88;36.25;101179.24;101348;1354;59182;-81
2021/12/17 11:47:42;;;;;;;;;;;;;;;18.81;36.27;101188.36;102103;1357;72662;-81
2021/12/17 11:50:08;;;;;;;;;;;;;;;18.73;36.35;101190.25;101936;1357;74858;-82
2021/12/17 11:52:34;;;;;;;;;;;;;;;18.67;36.42;101190.58;102212;1357;59014;-80
2021/12/17 11:55:21;;;;;;;;;;;;;;;18.62;36.38;101189.95;101806;1360;341052;-81
2021/12/17 11:57:47;;;;;;;;;;;;;;;18.55;36.44;101190.65;101847;1357;72832;-82
2021/12/17 12:00:17;;;;;;;;;;;;;;;18.53;36.55;101190.42;101839;1357;59099;-82
2021/12/17 12:02:49;;;;;;;;;;;;;;;18.52;36.63;101193.68;101992;1357;60459;-81
2021/12/17 12:05:37;;;;;;;;;;;;;;;18.50;36.54;101191.84;102066;1358;60291;-80
2021/12/17 12:08:21;;;;;;;;;;;;;;;18.48;36.69;101186.07;102312;1357;72731;-81
2021/12/17 12:11:01;;;;;;;;;;;;;;;18.48;36.61;101186.94;101169;1357;73736;-81
2021/12/17 12:13:37;;;;;;;;;;;;;;;18.49;36.70;101190.66;101423;1357;61729;-80
2021/12/17 12:16:06;;;;;;;;;;;;;;;18.49;36.82;101191.19;102192;1361;60571;-81
2021/12/17 12:18:44;;;;;;;;;;;;;;;18.49;36.77;101184.77;102036;1357;58742;-81
2021/12/17 12:21:11;;;;;;;;;;;;;;;18.49;36.63;101187.43;102097;1357;74067;-81
2021/12/17 12:23:42;;;;;;;;;;;;;;;18.50;36.68;101187.91;100840;1354;61081;-80
2021/12/17 12:26:28;;;;;;;;;;;;;;;18.51;36.61;101186.80;100835;1356;60621;-81
2021/12/17 12:29:30;;;;;;;;;;;;;;;18.51;36.58;101188.73;101311;1357;73660;-81
2021/12/17 12:32:18;;;;;;;;;;;;;;;18.52;36.53;101191.73;101131;1359;75249;-80
2021/12/17 12:35:03;;;;;;;;;;;;;;;;;;;;;
2021/12/17 12:38:15;;;;;;;;;;;;;;;18.53;36.54;101186.67;100962;1359;60575;-80
2021/12/17 12:40:44;;;;;;;;;;;;;;;18.54;36.51;101185.04;101178;1366;73861;-81
2021/12/17 12:43:49;;;;;;;;;;;;;;;18.53;36.49;101189.14;100680;1365;73903;-80
2021/12/17 12:46:42;;;;;;;;;;;;;;;18.54;36.47;101192.33;100302;1366;60466;-80
2021/12/17 12:49:35;;;;;;;;;;;;;;;18.51;36.50;101190.70;100258;1366;60680;-79
2021/12/17 12:52:47;;;;;;;;;;;;;;;18.48;36.54;101195.34;100431;1365;73784;-82
2021/12/17 12:55:50;;;;;;;;;;;;;;;;;;;;;
2021/12/17 12:58:20;;;;;;;;;;;;;;;18.51;36.83;101200.51;100389;1366;61032;-83
2021/12/17 13:00:57;;;;;;;;;;;;;;;18.52;37.02;101202.98;101284;1366;60269;-83
2021/12/17 13:03:23;;;;;;;;;;;;;;;18.53;37.01;101203.09;101425;1362;73113;-80
2021/12/17 13:05:49;;;;;;;;;;;;;;;18.52;36.94;101205.42;101400;1366;74912;-80
2021/12/17 13:08:20;;;;;;;;;;;;;;;18.52;36.88;101207.03;101369;1359;60531;-81
2021/12/17 13:10:49;;;;;;;;;;;;;;;18.54;36.76;101206.98;101678;1362;58666;-80
2021/12/17 13:13:29;;;;;;;;;;;;;;;18.55;36.70;101206.38;101812;1366;72702;-81
2021/12/17 13:21:57;;;;;;;;;;;;;;;;;;;;;
2021/12/17 13:24:44;;;;;;;;;;;;;;;18.57;36.51;101209.80;102208;1357;71961;-80
2021/12/17 13:27:10;;;;;;;;;;;;;;;18.58;36.38;101212.41;102277;1354;58476;-81
2021/12/17 13:29:58;;;;;;;;;;;;;;;18.60;36.36;101208.57;101468;1356;61689;-80
2021/12/17 13:32:33;;;;;;;;;;;;;;;;;;;;;
2021/12/17 13:35:33;;;;;;;;;;;;;;;;;;;;;
2021/12/17 13:39:00;;;;;;;;;;;;;;;18.63;36.25;101216.44;101013;1359;74557;-82
2021/12/17 13:45:42;;;;;;;;;;;;;;;;;;;;;
2021/12/17 13:49:09;;;;;;;;;;;;;;;18.63;35.95;101221.27;99323;1385;73251;-82
2021/12/17 13:52:13;;;;;;;;;;;;;;;;;;;;;
2021/12/17 13:59:00;;;;;;;;;;;;;;;18.62;35.79;101221.69;98708;1390;60508;-83
2021/12/17 14:08:52;;;;;;;;;;;;;;;;;;;;;
2021/12/17 14:12:52;;;;;;;;;;;;;;;18.76;36.66;101219.13;101007;1362;599278;-83
2021/12/17 14:19:47;;;;;;;;;;;;;;;18.91;37.07;101219.06;99916;1375;59265;-80
2021/12/17 14:23:26;;;;;;;;;;;;;;;18.97;37.20;101219.63;99026;1393;59269;-80
2021/12/17 14:26:13;;;;;;;;;;;;;;;19.02;37.21;101219.86;94888;1399;5367962;-82
2021/12/17 14:39:33;;;;;;;;;;;;;;;;;;;;;
2021/12/17 14:42:42;;;;;;;;;;;;;;;;;;;;;
2021/12/17 14:46:17;;;;;;;;;;;;;;;;;;;;;
2021/12/17 15:03:41;;;;;;;;;;;;;;;19.33;37.53;101230.66;98790;1394;71424;-80
2021/12/17 15:06:40;;;;;;;;;;;;;;;;;;;;;
2021/12/17 15:10:33;;;;;;;;;;;;;;;19.36;37.53;101235.48;97752;1405;59739;-80
2021/12/17 15:13:01;;;;;;;;;;;;;;;19.37;37.57;101235.95;97721;1403;74436;-81
2021/12/17 15:23:03;;;;;;;;;;;;;;;19.39;37.73;101235.98;96524;1415;61979;-80
2021/12/17 15:26:34;;;;;;;;;;;;;;;19.40;37.81;101235.55;96717;1414;74259;-80
2021/12/17 15:29:27;;;;;;;;;;;;;;;;;;;;;
2021/12/17 15:39:22;;;;;;;;;;;;;;;;;;;;;
2021/12/17 15:43:14;;;;;;;;;;;;;;;19.44;37.80;101227.31;98732;1392;72023;-79
2021/12/17 15:46:26;;;;;;;;;;;;;;;;;;;;;
2021/12/17 15:49:42;;;;;;;;;;;;;;;19.47;37.82;101238.77;98430;1395;59744;-81
2021/12/17 15:53:06;;;;;;;;;;;;;;;;;;;;;
2021/12/17 16:00:02;;;;;;;;;;;;;;;;;;;;;
2021/12/17 16:03:23;;;;;;;;;;;;;;;;;;;;;
2021/12/17 16:06:43;;;;;;;;;;;;;;;19.52;37.98;101246.67;96917;1416;71700;-81
2021/12/17 16:21:15;;;;;;;;;;;;;;;;;;;;;
2021/12/17 16:23:58;;;;;;;;;;;;;;;19.54;37.97;101245.65;96675;1413;74485;-81
2021/12/17 16:27:17;;;;;;;;;;;;;;;;;;;;;
2021/12/17 16:34:28;;;;;;;;;;;;;;;19.56;37.85;101251.30;97177;1405;72928;-80
2021/12/17 16:37:28;;;;;;;;;;;;;;;;;;;;;
2021/12/17 16:40:35;;;;;;;;;;;;;;;19.58;37.97;101256.87;98633;1395;60064;-80
2021/12/17 16:54:15;;;;;;;;;;;;;;;;;;;;;
2021/12/17 17:00:39;;;;;;;;;;;;;;;;;;;;;
2021/12/17 17:04:33;;;;;;;;;;;;;;;19.63;38.02;101273.76;97652;1404;72060;-80
2021/12/17 17:07:35;;;;;;;;;;;;;;;19.64;38.02;101280.48;97586;1402;61824;-81
2021/12/17 17:10:51;;;;;;;;;;;;;;;;;;;;;
2021/12/17 17:13:58;;;;;;;;;;;;;;;;;;;;;
2021/12/17 17:16:57;;;;;;;;;;;;;;;;;;;;;
2021/12/17 17:20:58;;;;;;;;;;;;;;;19.68;38.06;101289.16;101209;1359;599956;-82
2021/12/17 17:23:52;;;;;;;;;;;;;;;;;;;;;
2021/12/17 17:27:08;;;;;;;;;;;;;;;;;;;;;
2021/12/17 17:30:25;;;;;;;;;;;;;;;;;;;;;
2021/12/17 17:33:46;;;;;;;;;;;;;;;;;;;;;
2021/12/17 17:40:17;;;;;;;;;;;;;;;19.67;38.09;101299.89;99678;1380;59582;-83
2021/12/17 17:43:52;;;;;;;;;;;;;;;19.68;38.18;101302.20;99740;1375;60533;-81
2021/12/17 17:47:17;;;;;;;;;;;;;;;19.69;38.12;101299.11;99086;1390;73888;-80
2021/12/17 17:50:01;;;;;;;;;;;;;;;19.69;38.10;101297.31;98782;1395;72585;-80
2021/12/17 17:52:48;;;;;;;;;;;;;;;19.70;38.04;101292.27;98734;1390;59897;-80
2021/12/17 17:56:14;;;;;;;;;;;;;;;;;;;;;
2021/12/17 18:00:05;;;;;;;;;;;;;;;19.70;38.08;101293.14;98463;1402;75703;-81
2021/12/17 18:02:49;;;;;;;;;;;;;;;19.71;38.18;101296.30;98584;1395;71648;-81
2021/12/17 18:13:05;;;;;;;;;;;;;;;;;;;;;
2021/12/17 18:19:55;;;;;;;;;;;;;;;;;;;;;
2021/12/17 18:23:07;;;;;;;;;;;;;;;;;;;;;
2021/12/17 18:26:31;;;;;;;;;;;;;;;;;;;;;
2021/12/17 18:29:46;;;;;;;;;;;;;;;;;;;;;
2021/12/17 18:32:51;;;;;;;;;;;;;;;19.74;37.94;101282.58;100080;1379;60733;-81
2021/12/17 18:36:35;;;;;;;;;;;;;;;19.74;38.04;101292.02;95790;1385;5364242;-81
2021/12/17 18:39:08;;;;;;;;;;;;;;;19.74;38.02;101291.27;99259;1385;73661;-81
2021/12/17 18:45:49;;;;;;;;;;;;;;;;;;;;;
2021/12/17 18:48:59;;;;;;;;;;;;;;;;;;;;;
2021/12/17 18:51:44;;;;;;;;;;;;;;;19.77;38.10;101294.55;98890;1384;71377;-81
2021/12/17 18:54:54;;;;;;;;;;;;;;;;;;;;;
2021/12/17 18:57:58;;;;;;;;;;;;;;;;;;;;;
2021/12/17 19:01:09;;;;;;;;;;;;;;;19.79;38.07;101303.72;98961;1388;73940;-81
2021/12/17 19:03:59;;;;;;;;;;;;;;;19.79;38.13;101306.55;98687;1397;73424;-81
2021/12/17 19:07:07;;;;;;;;;;;;;;;;;;;;;
2021/12/17 19:17:52;;;;;;;;;;;;;;;19.80;38.06;101319.04;98689;1395;74844;-81
2021/12/17 19:20:39;;;;;;;;;;;;;;;19.80;38.06;101318.14;98717;1396;61409;-81
2021/12/17 19:24:02;;;;;;;;;;;;;;;;;;;;;
2021/12/17 19:27:20;;;;;;;;;;;;;;;;;;;;;
2021/12/17 19:30:37;;;;;;;;;;;;;;;;;;;;;
2021/12/17 19:33:40;;;;;;;;;;;;;;;19.80;38.03;101318.47;98723;1395;60377;-80
2021/12/17 19:40:57;;;;;;;;;;;;;;;19.80;38.01;101319.72;98717;1392;71573;-81
2021/12/17 19:54:04;;;;;;;;;;;;;;;19.81;38.05;101308.98;98301;1399;72165;-81
2021/12/17 19:57:08;;;;;;;;;;;;;;;;;;;;;
2021/12/17 20:00:19;;;;;;;;;;;;;;;;;;;;;
2021/12/17 20:03:53;;;;;;;;;;;;;;;19.81;38.00;101314.52;98229;1400;62551;-81
2021/12/17 20:06:45;;;;;;;;;;;;;;;;;;;;;
2021/12/17 20:09:47;;;;;;;;;;;;;;;;;;;;;
2021/12/17 20:13:09;;;;;;;;;;;;;;;19.81;38.00;101313.80;97336;1405;59813;-81
2021/12/17 20:20:03;;;;;;;;;;;;;;;19.84;37.92;101315.27;101492;1352;599884;-81
2021/12/17 20:22:40;;;;;;;;;;;;;;;;;;;;;
2021/12/17 20:29:09;;;;;;;;;;;;;;;;;;;;;
2021/12/17 20:35:48;;;;;;;;;;;;;;;19.83;37.87;101308.88;101380;1364;72241;-81
2021/12/17 20:39:00;;;;;;;;;;;;;;;19.83;37.94;101309.23;101461;1363;60165;-82
2021/12/17 20:45:19;;;;;;;;;;;;;;;;;;;;;
2021/12/17 20:48:37;;;;;;;;;;;;;;;;;;;;;
2021/12/17 20:51:51;;;;;;;;;;;;;;;19.84;37.99;101303.29;100263;1371;60768;-82
2021/12/17 20:54:37;;;;;;;;;;;;;;;19.84;38.08;101305.05;100270;1375;59675;-81
2021/12/17 21:01:03;;;;;;;;;;;;;;;19.84;37.89;101307.54;99761;1374;71990;-81
2021/12/17 21:04:04;;;;;;;;;;;;;;;;;;;;;
2021/12/17 21:07:31;;;;;;;;;;;;;;;19.84;37.98;101315.22;99837;1374;59683;-82
2021/12/17 21:13:58;;;;;;;;;;;;;;;;;;;;;
2021/12/17 21:17:30;;;;;;;;;;;;;;;19.85;37.90;101315.91;98873;1395;61510;-82
2021/12/17 21:20:13;;;;;;;;;;;;;;;;;;;;;
2021/12/17 21:23:37;;;;;;;;;;;;;;;19.85;37.97;101323.42;99098;1383;71712;-82
2021/12/17 21:26:52;;;;;;;;;;;;;;;;;;;;;
2021/12/17 21:30:06;;;;;;;;;;;;;;;;;;;;;
2021/12/17 21:33:22;;;;;;;;;;;;;;;;;;;;;
2021/12/17 21:36:31;;;;;;;;;;;;;;;19.85;37.84;101323.22;98576;1394;71703;-82
2021/12/17 21:42:31;;;;;;;;;;;;;;;19.85;37.88;101320.73;97841;1406;61015;-81
2021/12/17 21:45:50;;;;;;;;;;;;;;;;;;;;;
2021/12/17 21:49:24;;;;;;;;;;;;;;;19.85;37.86;101316.08;97519;1407;74149;-81
2021/12/17 21:52:55;;;;;;;;;;;;;;;19.85;37.94;101313.75;98076;1404;73591;-81
2021/12/17 21:55:54;;;;;;;;;;;;;;;;;;;;;
2021/12/17 21:59:08;;;;;;;;;;;;;;;19.86;37.85;101309.91;97807;1403;60615;-82
2021/12/17 22:01:46;;;;;;;;;;;;;;;19.87;37.91;101309.19;97545;1406;74016;-82
2021/12/17 22:05:02;;;;;;;;;;;;;;;;;;;;;
2021/12/17 22:11:23;;;;;;;;;;;;;;;;;;;;;
2021/12/17 22:17:46;;;;;;;;;;;;;;;;;;;;;
2021/12/17 22:21:12;;;;;;;;;;;;;;;19.89;37.85;101317.47;97750;1408;60256;-82
2021/12/17 22:27:19;;;;;;;;;;;;;;;19.89;37.82;101321.21;98501;1402;74425;-82
2021/12/17 22:30:33;;;;;;;;;;;;;;;19.88;37.83;101319.61;98521;1400;72358;-82
2021/12/17 22:33:33;;;;;;;;;;;;;;;;;;;;;
2021/12/17 22:36:49;;;;;;;;;;;;;;;;;;;;;
2021/12/17 22:40:30;;;;;;;;;;;;;;;19.89;37.90;101318.52;97519;1404;74403;-83
2021/12/17 22:43:40;;;;;;;;;;;;;;;;;;;;;
2021/12/17 22:47:34;;;;;;;;;;;;;;;19.90;37.86;101315.06;98017;1401;59729;-81
2021/12/17 22:50:37;;;;;;;;;;;;;;;19.90;37.81;101310.95;98735;1389;60434;-81
2021/12/17 22:53:39;;;;;;;;;;;;;;;19.91;37.86;101315.56;98733;1393;73030;-83
2021/12/17 22:57:31;;;;;;;;;;;;;;;19.91;37.82;101314.13;99289;1384;74751;-82
2021/12/17 23:00:13;;;;;;;;;;;;;;;;;;;;;
2021/12/17 23:21:17;;;;;;;;;;;;;;;19.92;37.83;101296.37;99021;1393;71642;-82
2021/12/17 23:24:00;;;;;;;;;;;;;;;19.92;37.79;101289.54;98720;1391;70951;-83
2021/12/17 23:27:31;;;;;;;;;;;;;;;19.93;37.75;101292.20;98737;1398;59992;-81
2021/12/17 23:30:57;;;;;;;;;;;;;;;19.93;37.77;101292.18;98746;1396;59600;-81
2021/12/17 23:37:06;;;;;;;;;;;;;;;;;;;;;
2021/12/17 23:40:19;;;;;;;;;;;;;;;19.94;37.75;101297.33;97969;1401;59801;-81
2021/12/17 23:43:57;;;;;;;;;;;;;;;;;;;;;
2021/12/17 23:50:21;;;;;;;;;;;;;;;19.95;37.70;101305.67;97696;1407;72108;-82
2021/12/17 23:53:12;;;;;;;;;;;;;;;;;;;;;
